Tiempo atmosférico en la estación meteorológica de Fisterra, A Coruña (230 m.)



Fecha
DESCASC
Temp. máxima en grados centígrados (hora)
DESCASC
Temp. mínima en grados centígrados (hora)
DESCASC
Temp. media en grados centígrados
DESCASC
Racha de viento máxima en m/sg (hora)
DESCASC
Velocidad máxima media en intervalos de 10 minutos(hora)
DESCASC
Precipitaciones diarias en mm
DESCASC
Precipitaciones de 00:00 a 06:00 en mm
DESCASC
Precipitaciones de 06:00 a 12:00 en mm
DESCASC
Precipitaciones de 12:00 a 18:00 en mm
DESCASC
Precipitaciones de 18:00 a 24:00 en mm
DESCASC
20-09-2018 19.2 (14:00) 14.8 (05:30) 17 12.5 (20:20) 8.89 (20:20) 0.2 0 0.2 0 0
19-09-2018 22.8 (17:40) 15.4 (09:50) 19.1 10.28 (10:20) 6.67 (10:40) 0.2 0 0.2 0 0
18-09-2018 19.6 (19:20) 15.2 (00:10) 17.4 8.89 (02:10) 6.39 (00:20) 0.6 0.4 0.2 0 0
17-09-2018 20 (01:10) 13.6 (10:20) 16.8 11.39 (20:40) 8.33 (15:20) 1 0 0 0.4 0.6
16-09-2018 19.6 (23:59) 15.2 (00:00) 17.4 14.72 (02:00) 10.56 (17:10) 0 0 0 0 0
15-09-2018 21.9 (17:40) 15.8 (00:00) 18.8 17.22 (22:50) 12.78 (21:40) 0 0 0 0 0
14-09-2018 21.6 (15:00) 16 (00:00) 18.8 17.78 (17:40) 10.56 (20:00) 0 0 0 0 0
13-09-2018 20.4 (12:20) 15.8 (00:00) 18.1 16.94 (20:00) 11.39 (16:50) 0 0 0 0 0
12-09-2018 21.6 (15:40) 16.1 (00:00) 18.9 18.06 (08:00) 12.5 (07:30) 0 0 0 0 0
11-09-2018 30.4 (17:00) 16.5 (00:00) 23.4 15.28 (23:40) 10.56 (23:59) 0 0 0 0 0
10-09-2018 23.6 (13:00) 15.6 (00:00) 19.6 15.28 (22:20) 10.83 (22:10) 0 0 0 0 0
09-09-2018 20.5 (11:40) 13.4 (00:00) 16.9 15 (19:50) 11.67 (14:20) 0 0 0 0 0
08-09-2018 26.3 (13:10) 16.3 (00:00) 21.3 13.33 (00:30) 10 (00:30) 0 0 0 0 0
07-09-2018 26.4 (13:50) 14.9 (00:00) 20.6 18.89 (05:20) 13.06 (05:10) 0 0 0 0 0
06-09-2018 21.9 (15:40) 15.1 (00:00) 18.5 20 (11:10) 11.67 (13:10) 0 0 0 0 0
05-09-2018 20.6 (15:00) 15.3 (00:00) 18 20.28 (06:10) 13.06 (06:10) 0 0 0 0 0
04-09-2018 22.9 (13:20) 15.6 (00:00) 19.3 16.67 (08:10) 10.56 (23:20) 0 0 0 0 0
03-09-2018 27.2 (02:20) 17.4 (00:00) 22.3 15 (23:20) 8.61 (23:20) 0 0 0 0 0
02-09-2018 32.3 (11:30) 22.8 (00:00) 27.5 12.5 (12:50) 9.44 (12:40) 0 0 0 0 0
01-09-2018 31.7 (16:20) 16.9 (00:00) 24.3 18.33 (04:50) 11.39 (05:40) 0 0 0 0 0
31-08-2018 23.7 (13:00) 15.9 (00:00) 19.8 20.28 (06:50) 14.72 (06:10) 0 0 0 0 0
30-08-2018 20.5 (16:00) 14.3 (00:00) 17.4 15.28 (17:50) 10 (17:40) 0 0 0 0 0
29-08-2018 18.6 (13:20) 14.7 (00:00) 16.7 15.56 (18:30) 9.72 (18:10) 0 0 0 0 0
28-08-2018 23.3 (03:50) 15.3 (00:00) 19.3 14.17 (18:20) 11.11 (18:20) 0 0 0 0 0
27-08-2018 23.5 (16:10) 17.7 (00:00) 20.6 15.28 (11:40) 11.11 (18:20) 0 0 0 0 0
26-08-2018 19.9 (16:20) 14.1 (00:00) 17 13.33 (20:10) 9.17 (20:00) 0 0 0 0 0
25-08-2018 17.9 (12:30) 13.9 (00:00) 15.9 15.28 (16:00) 10.28 (15:10) 0 0 0 0 0
24-08-2018 21 (14:10) 14.6 (00:00) 17.8 16.39 (20:20) 11.94 (22:00) 0 0 0 0 0

Gráficas

Temp. máximas Temp. mínimas Temp. medias Precipitaciones Rachas de viento máximas Velocidades máximas media en intervalos de 10 minutos

Datos horarios

Fecha y hora oficial Temperatura (ºC) Velocidad del viento (km/h) Dirección del viento Racha (km/h) Dirección de racha Precipitación (mm) Presión (hPa) Tendencia (hPa) Humedad (%)
2018-09-22 23:00:00 18.1 24 Norte 32 Norte 0 997.4 0.7 89
2018-09-22 22:00:00 17.9 21 Norte 30 Norte 0 997.2 0.6 92
2018-09-22 21:00:00 18.1 19 Norte 27 Norte 0 996.8 0.3 87
2018-09-22 20:00:00 19.2 15 Norte 26 Norte 0 996.7 -0.1 82
2018-09-22 19:00:00 19.4 21 Norte 26 Norte 0 996.6 -0.5 81
2018-09-22 18:00:00 19.8 15 Norte 23 Norte 0.2 996.5 -0.7 79
2018-09-22 17:00:00 19.3 17 Norte 21 Norte 0 996.8 -0.6 83
2018-09-22 16:00:00 19.1 15 Norte 25 Norte 0 997.1 -0.4 87
2018-09-22 15:00:00 19.4 12 Noroeste 18 Norte 0 997.2 0 87
2018-09-22 14:00:00 19.9 9 Noroeste 17 Noroeste 0 997.4 0.7 90
2018-09-22 13:00:00 18.8 10 Noroeste 16 Noroeste 0 997.5 1.3 92
2018-09-22 12:00:00 18.5 15 Norte 18 Norte 0 997.2 1.3 94
2018-09-22 11:00:00 18.2 7 Noroeste 15 Noroeste 0 996.7 1.4 95
2018-09-22 10:00:00 17.8 9 Noroeste 16 Noroeste 0 996.2 1.1 95
2018-09-22 09:00:00 17 7 Noroeste 14 Noroeste 0 995.9 1.1 95
2018-09-22 08:00:00 16.8 9 Oeste 12 Noroeste 0 995.3 0.4 95
2018-09-22 07:00:00 16.8 8 Noroeste 12 Noroeste 0 995.1 0 95
2018-09-22 06:00:00 16.6 4 Oeste 11 Oeste 0 994.8 -0.4 96
2018-09-22 05:00:00 16.5 4 Oeste 6 Oeste 0 994.9 -0.5 96
2018-09-22 04:00:00 17 5 Noroeste 10 Sudeste 0 995.1 -0.3 96
2018-09-22 03:00:00 17 7 Sudeste 13 Sur 0 995.2 -0.3 96
2018-09-22 02:00:00 17.3 12 Sur 17 Sur 0.2 995.4 0.1 96
2018-09-22 01:00:00 17.4 12 Sudeste 19 Sur 0 995.4 0.4 96
2018-09-22 00:00:00 17.7 12 Sur 17 Sur 0 995.5 0.7 96
2018-09-21 23:00:00 17.7 12 Sudeste 18 Sur 0 995.3 0.5 96
2018-09-21 22:00:00 17.8 9 Sudeste 16 Sudeste 0 995 0.5 96
2018-09-21 21:00:00 17.7 11 Sudeste 16 Sudeste 0 994.8 0.4 96
2018-09-21 20:00:00 17.7 11 Sur 24 Sur 0.2 994.8 0.2 96
2018-09-21 19:00:00 17.5 15 Sur 26 Sudoeste 0.4 994.5 -0.2 96
2018-09-21 18:00:00 17.6 16 Sur 27 Sur 0.4 994.4 0 96
2018-09-21 17:00:00 17.4 14 Sur 29 Sudoeste 0.4 994.6 0 96
2018-09-21 16:00:00 17.5 22 Sudoeste 40 Sudoeste 0.2 994.7 0 96
2018-09-21 15:00:00 17.3 31 Sudoeste 42 Sudoeste 1.2 994.4 -0.3 96
2018-09-21 14:00:00 16.8 20 Sur 33 Sudoeste 1.2 994.6 0.6 96
2018-09-21 13:00:00 16.7 16 Sur 31 Sudoeste 0.2 994.7 1.2 96
2018-09-21 12:00:00 16.5 13 Sudoeste 30 Sudoeste 0.4 994.7 1.6 96
2018-09-21 11:00:00 16.8 22 Sudoeste 38 Sudoeste 2.8 994 1.5 96
2018-09-21 10:00:00 16.7 28 Sudoeste 37 Sudoeste 1.6 993.5 1.1 96
2018-09-21 09:00:00 16.6 26 Sudoeste 36 Sur 0.6 993.1 1 96
2018-09-21 08:00:00 16.5 27 Sudoeste 37 Sudoeste 0 992.5 0.4 96
2018-09-21 07:00:00 16.3 25 Sudoeste 35 Sudoeste 0.2 992.4 0.2 95
2018-09-21 06:00:00 16.4 24 Sudoeste 35 Sudoeste 0 992.1 -0.2 95
2018-09-21 05:00:00 16.3 26 Sudoeste 35 Sudoeste 0 992.1 -0.4 95
2018-09-21 04:00:00 16.2 25 Sudoeste 37 Sudoeste 0 992.2 -0.3 95
2018-09-21 03:00:00 16.2 28 Sur 39 Sudoeste 0 992.3 -0.4 95
2018-09-21 02:00:00 16.5 27 Sudoeste 39 Sur 0 992.5 -0.5 95
2018-09-21 01:00:00 16.9 24 Sur 37 Sudoeste 0 992.5 0 95
2018-09-21 00:00:00 16.7 24 Sudoeste 32 Sudoeste 0 992.7 0.4 95
2018-09-20 23:00:00 16.6 22 Sudoeste 38 Sudoeste 0 993 0.8 95
2018-09-20 22:00:00 16.5 25 Sudoeste 36 Sudoeste 0 992.5 0.1 94
2018-09-20 21:00:00 16.3 30 Sudoeste 45 Sur 0 992.3 0 94
2018-09-20 20:00:00 17 31 Sur 39 Sudoeste 0 992.2 -0.4 93
2018-09-20 19:00:00 16.8 27 Sudoeste 36 Sudoeste 0 992.4 -0.4 92
2018-09-20 18:00:00 16.6 24 Sur 38 Sudoeste 0 992.3 -0.6 92
2018-09-20 17:00:00 16.4 23 Sur 36 Sudoeste 0 992.6 -0.5 91
2018-09-20 16:00:00 16.3 23 Sur 37 Sur 0 992.8 -0.7 90
2018-09-20 15:00:00 18.2 20 Sur 31 Sudoeste 0 992.9 -0.7 84
2018-09-20 14:00:00 18.9 19 Sur 31 Sur 0 993.1 -0.6 83
2018-09-20 13:00:00 17.7 16 Sur 26 Sur 0 993.5 0 90
2018-09-20 12:00:00 17.5 13 Sur 26 Sudoeste 0 993.6 0.4 93
2018-09-20 11:00:00 17.1 14 Sudoeste 22 Sudoeste 0 993.7 0.3 95
2018-09-20 10:00:00 16.5 17 Sudoeste 21 Sudoeste 0 993.5 0.4 95
2018-09-20 09:00:00 16.3 14 Sudoeste 20 Sudoeste 0 993.2 0.1 95
2018-09-20 08:00:00 16.1 10 Sudoeste 18 Sudoeste 0 993.4 0.1 94
2018-09-20 07:00:00 15.4 7 Sudoeste 18 Sur 0.2 993.1 -0.4 94
2018-09-20 06:00:00 14.9 13 Sur 18 Sur 0 993.1 -0.9 93
2018-09-20 05:00:00 15.4 6 Sudoeste 10 Oeste 0 993.3 -1.3 91
2018-09-20 04:00:00 15.6 5 Sur 11 Sudeste 0 993.5 -1.5 92
2018-09-20 03:00:00 15.2 9 Sudeste 14 Sudeste 0 994 -1.2 94
2018-09-20 02:00:00 15.5 8 Sur 15 Sur 0 994.6 -0.9 94
2018-09-20 01:00:00 15.9 5 Sur 15 Sur 0 995 -0.2 93
2018-09-20 00:00:00 16.2 11 Sudeste 15 Sur 0 995.2 0.4 92
2018-09-19 23:00:00 16.9 5 Sudoeste 10 Sudoeste 0 995.5 0.6 92
2018-09-19 22:00:00 17.2 5 Sudoeste 11 Oeste 0 995.2 0.4 92
2018-09-19 21:00:00 17.3 4 Oeste 13 Oeste 0 994.8 0.2 91
2018-09-19 20:00:00 18.2 11 Sudoeste 18 Sudoeste 0 994.9 0.4 87
2018-09-19 19:00:00 19.4 12 Sudoeste 17 Sudoeste 0 994.8 -0.2 82
2018-09-19 18:00:00 21.5 8 Sudoeste 19 Sudoeste 0 994.6 -0.6 75
2018-09-19 17:00:00 22.3 13 Sudoeste 23 Sudoeste 0 994.5 -0.6 70
2018-09-19 16:00:00 20.9 15 Sudoeste 22 Sudoeste 0 995 -0.3 72
2018-09-19 15:00:00 19 12 Sur 23 Sudoeste 0 995.2 0 73
2018-09-19 14:00:00 18.4 15 Sur 25 Sur 0 995.1 0.5 77
2018-09-19 13:00:00 17.5 18 Sur 30 Sur 0 995.3 1.2 79
2018-09-19 12:00:00 17 17 Sur 33 Sur 0 995.2 1.6 83
2018-09-19 11:00:00 16.2 23 Sur 37 Sur 0.2 994.6 1.5 89
2018-09-19 10:00:00 15.5 24 Sur 33 Sur 0 994.1 1.4 93
2018-09-19 09:00:00 15.8 17 Sudeste 24 Sur 0 993.6 1.1 94
2018-09-19 08:00:00 15.9 20 Sur 26 Sur 0 993.1 0.5 94
2018-09-19 07:00:00 15.9 17 Sur 21 Sur 0 992.7 -0.2 94
2018-09-19 06:00:00 15.9 14 Sur 22 Sur 0 992.5 -0.5 93
2018-09-19 05:00:00 15.7 19 Sudeste 24 Sur 0 992.6 -0.5 93
2018-09-19 04:00:00 16 12 Sur 17 Sudoeste 0 992.9 -0.1 92
2018-09-19 03:00:00 15.9 10 Sur 14 Sur 0 993 0 91
2018-09-19 02:00:00 15.7 10 Sudoeste 13 Sudoeste 0 993.1 0.3 90
2018-09-19 01:00:00 15.8 8 Sur 15 Oeste 0 993 0.2 88
2018-09-19 00:00:00 15.6 10 Sudoeste 13 Sudoeste 0 993 1 88
2018-09-18 23:00:00 15.9 8 Sur 12 Sudoeste 0 992.8 1.2 88
2018-09-18 22:00:00 15.8 8 Sudoeste 15 Oeste 0 992.8 1.4 87
2018-09-18 21:00:00 16.6 12 Oeste 18 Sudoeste 0 992 0.7 85
2018-09-18 20:00:00 19 9 Sudoeste 14 Sudoeste 0 991.6 0.2 79
2018-09-18 19:00:00 19.2 9 Sudoeste 17 Sur 0 991.4 0.2 84
2018-09-18 18:00:00 18.7 10 Sur 17 Sur 0 991.3 -0.1 86
2018-09-18 17:00:00 17.7 8 Sur 17 Sur 0 991.4 -0.2 91
2018-09-18 16:00:00 17.7 8 Sudeste 19 Sur 0 991.2 -0.2 93
2018-09-18 15:00:00 18.7 5 Sur 18 Sudoeste 0 991.4 0.3 95
2018-09-18 14:00:00 16.3 10 Sur 19 Sur 0 991.6 0.8 96
2018-09-18 13:00:00 16.2 14 Sur 21 Sur 0 991.4 1.4 96
2018-09-18 12:00:00 16.1 14 Sur 22 Sudoeste 0 991.1 1.6 96
2018-09-18 11:00:00 16.6 8 Sudeste 17 Sur 0 990.8 1.9 96
2018-09-18 10:00:00 15.7 13 Sur 21 Sur 0 990 1.1 96
2018-09-18 09:00:00 15.9 12 Sur 21 Sur 0.2 989.5 0.8 96
2018-09-18 08:00:00 16.1 9 Sur 13 Sudoeste 0 988.9 0.4 96
2018-09-18 07:00:00 16 8 Sur 17 Sudoeste 0 988.9 0.2 96
2018-09-18 06:00:00 16 11 Sur 22 Sur 0.2 988.7 -0.2 96
2018-09-18 05:00:00 15.8 17 Sur 24 Sur 0 988.5 -0.3 96
2018-09-18 04:00:00 15.9 15 Sur 27 Sudoeste 0 988.7 -0.2 96
2018-09-18 03:00:00 15.9 18 Sur 32 Sur 0 988.9 0.2 95
2018-09-18 02:00:00 15.8 20 Sur 31 Sur 0 988.8 0.2 95
2018-09-18 01:00:00 15.5 21 Sur 32 Sur 0.2 988.9 0.5 95
2018-09-18 00:00:00 15.3 21 Sur 33 Sur 0 988.7 0.7 95
2018-09-17 23:00:00 15.7 23 Sur 33 Sur 0 988.6 0.8 95
2018-09-17 22:00:00 15.7 19 Sur 36 Sur 0.2 988.4 0.6 95
2018-09-17 21:00:00 15.5 20 Sudeste 41 Sur 0.2 988 -0.1 95
2018-09-17 20:00:00 15.6 21 Sur 40 Sudeste 0.2 987.8 -0.5 95
2018-09-17 19:00:00 15.4 26 Sudeste 36 Sur 0 987.8 -0.9 94
2018-09-17 18:00:00 15.3 25 Sur 35 Sur 0 988.1 -0.7 94
2018-09-17 17:00:00 15.7 25 Sur 36 Sur 0 988.3 -0.5 94
2018-09-17 16:00:00 15.4 19 Sur 40 Sur 0 988.7 -0.2 94
2018-09-17 15:00:00 15.6 21 Sur 39 Sur 0.2 988.8 -0.5 94
2018-09-17 14:00:00 15.3 21 Sur 39 Sur 0.2 988.8 -0.5 95
2018-09-17 13:00:00 15.2 21 Sur -- -- -- 988.9 -0.3 94
2018-09-17 12:00:00 15.3 23 Sur -- -- -- 989.3 0.9 94
2018-09-17 11:00:00 14.6 10 Sur 22 Sur 0 989.3 0.9 95
2018-09-17 10:00:00 13.9 19 Sudoeste 34 Sur 0 989.2 1 94
2018-09-17 09:00:00 14.2 21 Sur 27 Sur 0 988.4 -0.1 93
2018-09-17 08:00:00 15.4 21 Sur 26 Sur 0 988.4 -0.2 92
2018-09-17 07:00:00 15.4 23 Sudeste 31 Sur 0 988.2 -0.6 91
2018-09-17 06:00:00 15.8 18 Sudoeste 23 Sur 0 988.5 -0.9 88
2018-09-17 05:00:00 16.6 18 Sur 31 Sur 0 988.6 -1.3 80
2018-09-17 04:00:00 18.1 15 Sur 22 Sudoeste 0 988.8 -1.4 74
2018-09-17 03:00:00 18.6 11 Sur 13 Sur 0 989.4 -1.4 71
2018-09-17 02:00:00 19.8 5 Sur 10 Sudeste 0 989.9 -1.3 67
2018-09-17 01:00:00 19.9 4 Sur 10 Este 0 990.2 -1.2 66
2018-09-17 00:00:00 19.6 8 Sudeste 25 Este 0 990.8 -0.5 67
2018-09-16 23:00:00 17.9 21 Este 42 Este 0 991.2 -0.3 74
2018-09-16 22:00:00 16.7 33 Nordeste 45 Nordeste 0 991.4 0 84
2018-09-16 21:00:00 16.2 31 Nordeste 37 Nordeste 0 991.3 -0.3 85
2018-09-16 20:00:00 17.4 25 Nordeste 35 Nordeste 0 991.5 -0.6 79
2018-09-16 19:00:00 18.1 27 Nordeste 43 Nordeste 0 991.4 -1.2 78
2018-09-16 18:00:00 18.2 33 Nordeste 50 Norte 0 991.6 -1.5 77
2018-09-16 17:00:00 18 35 Nordeste 50 Nordeste 0 992.1 -1.7 76
2018-09-16 16:00:00 19.1 32 Nordeste 45 Nordeste 0 992.6 -1.6 72
2018-09-16 15:00:00 18.5 31 Nordeste 46 Nordeste 0 993.1 -1.1 77
2018-09-16 14:00:00 18.2 27 Nordeste 41 Norte 0 993.8 -0.1 84
2018-09-16 13:00:00 18 24 Nordeste 33 Nordeste 0 994.2 0.6 84
2018-09-16 12:00:00 17.6 24 Nordeste 37 Nordeste 0 994.2 0.6 87
2018-09-16 11:00:00 16.7 26 Nordeste 32 Nordeste 0 993.9 0.8 92
2018-09-16 10:00:00 16.3 19 Nordeste 35 Nordeste 0 993.6 0.6 92
2018-09-16 09:00:00 15.6 23 Nordeste 35 Nordeste 0 993.6 0.6 93
2018-09-16 08:00:00 15.4 25 Nordeste 33 Nordeste 0 993.1 0.6 94
2018-09-16 07:00:00 15.5 22 Nordeste 42 Nordeste 0 993 0 94
2018-09-16 06:00:00 15.3 29 Nordeste 46 Nordeste 0 993 -0.1 94
2018-09-16 05:00:00 15.6 33 Nordeste 48 Nordeste 0 992.5 -0.6 95
2018-09-16 04:00:00 15.4 30 Nordeste 48 Nordeste 0 993 -0.4 94
2018-09-16 03:00:00 15.9 34 Nordeste 51 Nordeste 0 993.1 -0.1 93
2018-09-16 02:00:00 16.2 33 Nordeste 53 Nordeste 0 993.1 0.2 93
2018-09-16 01:00:00 16.1 29 Nordeste 49 Nordeste 0 993.4 1.3 92
2018-09-16 00:00:00 16.1 33 Nordeste 57 Nordeste 0 993.2 1.4 93
2018-09-15 23:00:00 16.2 40 Nordeste 62 Nordeste 0 992.9 1.4 92
2018-09-15 22:00:00 16.1 44 Nordeste 60 Nordeste 0 992.1 0.8 92
2018-09-15 21:00:00 16.4 40 Nordeste 56 Nordeste 0 991.8 0.4 90
2018-09-15 20:00:00 18.2 32 Nordeste 38 Nordeste 0 991.5 0 80
2018-09-15 19:00:00 20.3 23 Nordeste 30 Nordeste 0 991.3 -0.2 70
2018-09-15 18:00:00 20.5 17 Norte 26 Nordeste 0 991.4 -0.4 69
2018-09-15 17:00:00 20.8 14 Nordeste 22 Norte 0 991.5 -0.9 68
2018-09-15 16:00:00 20.4 19 Norte 26 Norte 0 991.5 -1.3 71
2018-09-15 15:00:00 20.7 15 Norte 24 Norte 0 991.8 -1.1 69
2018-09-15 14:00:00 20.4 8 Norte 13 Norte 0 992.4 -0.3 70
2018-09-15 13:00:00 20.4 4 Noroeste 7 Oeste 0 992.8 0.6 70
2018-09-15 12:00:00 18.7 5 Noroeste 12 Sudoeste 0 992.9 1.3 76
2018-09-15 11:00:00 18.2 9 Sudoeste 17 Sudoeste 0 992.7 1.9 81
2018-09-15 10:00:00 19.1 8 Sur 15 Sudeste 0 992.2 1.7 72
2018-09-15 09:00:00 17.7 7 Sudeste 36 Este 0 991.6 1.1 79
2018-09-15 08:00:00 16.8 28 Este 41 Este 0 990.8 0.2 82
2018-09-15 07:00:00 16.1 33 Este 40 Este 0 990.5 -0.6 86
2018-09-15 06:00:00 15.9 32 Este 42 Este 0 990.5 -1 87
2018-09-15 05:00:00 16.2 28 Nordeste 39 Nordeste 0 990.6 -1.2 87
2018-09-15 04:00:00 16.3 28 Este 42 Este 0 991.1 -0.9 87
2018-09-15 03:00:00 16.4 32 Nordeste 47 Nordeste 0 991.5 -0.8 88
2018-09-15 02:00:00 16.5 30 Nordeste 42 Nordeste 0 991.8 -0.4 88
2018-09-15 01:00:00 16.8 28 Nordeste 39 Este 0 992 0 87
2018-09-15 00:00:00 16.7 23 Nordeste 50 Este 0 992.3 0.8 89
2018-09-14 23:00:00 16.7 23 Nordeste 45 Este 0 992.2 0.8 89
2018-09-14 22:00:00 16.9 23 Nordeste 53 Este 0 992 0.4 88
2018-09-14 21:00:00 17.3 34 Nordeste 58 Nordeste 0 991.5 -0.3 87
2018-09-14 20:00:00 18.1 38 Nordeste 59 Nordeste 0 991.4 -0.5 82
2018-09-14 19:00:00 18.5 34 Nordeste 52 Nordeste 0 991.6 -0.4 78
2018-09-14 18:00:00 19.2 23 Nordeste 64 Nordeste 0 991.8 -0.5 76
2018-09-14 17:00:00 20 33 Nordeste 60 Nordeste 0 991.9 -0.6 72
2018-09-14 16:00:00 20.4 29 Nordeste 53 Nordeste 0 992 -0.7 72
2018-09-14 15:00:00 21.6 24 Nordeste 43 Nordeste 0 992.3 -0.5 68
2018-09-14 14:00:00 20.7 27 Nordeste 51 Nordeste 0 992.5 -0.1 72
2018-09-14 13:00:00 20.3 28 Nordeste 62 Nordeste 0 992.7 0.2 75
2018-09-14 12:00:00 19 33 Nordeste 52 Nordeste 0 992.8 0.7 80
2018-09-14 11:00:00 17.8 21 Nordeste 46 Nordeste 0 992.6 0.7 86
2018-09-14 10:00:00 16.7 23 Nordeste 42 Este 0 992.5 1 91
2018-09-14 09:00:00 16.4 20 Nordeste 44 Nordeste 0 992.1 0.5 91
2018-09-14 08:00:00 16.1 27 Este 50 Este 0 991.9 -0.2 92
2018-09-14 07:00:00 16.1 29 Nordeste 51 Nordeste 0 991.5 -0.7 92
2018-09-14 06:00:00 16 23 Nordeste 49 Nordeste 0 991.6 -0.9 92
2018-09-14 05:00:00 16.1 30 Nordeste 51 Nordeste 0 992.1 -0.7 92
2018-09-14 04:00:00 16.2 31 Nordeste 59 Nordeste 0 992.2 -1 91
2018-09-14 03:00:00 16.2 30 Nordeste 49 Nordeste 0 992.5 -0.7 92
2018-09-14 02:00:00 16.3 25 Nordeste 45 Este 0 992.8 -0.7 91
2018-09-14 01:00:00 16.3 27 Nordeste 49 Nordeste 0 993.2 0.1 92
2018-09-14 00:00:00 16.2 28 Nordeste 51 Nordeste 0 993.2 0.7 92
2018-09-13 23:00:00 16.3 27 Nordeste 48 Nordeste 0 993.5 1.2 91
2018-09-13 22:00:00 16.7 27 Nordeste 49 Nordeste 0 993.1 0.7 88
2018-09-13 21:00:00 17.4 31 Nordeste 57 Nordeste 0 992.5 -0.2 83
2018-09-13 20:00:00 19 37 Nordeste 61 Nordeste 0 992.3 -0.5 76
2018-09-13 19:00:00 19 37 Nordeste 57 Nordeste 0 992.4 -0.9 80
2018-09-13 18:00:00 19.5 33 Nordeste 53 Nordeste 0 992.7 -1.1 79
2018-09-13 17:00:00 18.1 40 Nordeste 57 Nordeste 0 992.8 -1.5 85
2018-09-13 16:00:00 19.7 36 Nordeste 49 Nordeste 0 993.3 -1.4 76
2018-09-13 15:00:00 19.8 32 Nordeste 44 Nordeste 0 993.8 -1.1 77
2018-09-13 14:00:00 19.9 28 Nordeste 40 Nordeste 0 994.3 -0.6 74
2018-09-13 13:00:00 19.7 31 Nordeste 41 Nordeste 0 994.7 0.1 75
2018-09-13 12:00:00 19.5 28 Nordeste 39 Nordeste 0 994.9 0.6 78
2018-09-13 11:00:00 18.3 21 Nordeste 42 Nordeste 0 994.9 0.8 83
2018-09-13 10:00:00 16.7 25 Nordeste 43 Nordeste 0 994.6 0.7 89
2018-09-13 09:00:00 16.3 29 Nordeste 43 Nordeste 0 994.3 0.4 90
2018-09-13 08:00:00 16 23 Nordeste 41 Nordeste 0 994.1 0 91
2018-09-13 07:00:00 16.3 25 Nordeste 44 Nordeste 0 993.9 -0.4 90
2018-09-13 06:00:00 16.6 23 Nordeste 42 Este 0 993.9 -1 90
2018-09-13 05:00:00 16.8 27 Nordeste 48 Nordeste 0 994.1 -1.1 92
2018-09-13 04:00:00 16.8 31 Nordeste 50 Este 0 994.3 -1 92
2018-09-13 03:00:00 16.7 29 Nordeste 49 Nordeste 0 994.9 -0.6 93
2018-09-13 02:00:00 16.5 26 Nordeste 41 Nordeste 0 995.2 -0.5 93
2018-09-13 01:00:00 16.5 25 Nordeste 45 Nordeste 0 995.3 0.1 92
2018-09-13 00:00:00 16.6 23 Nordeste 48 Nordeste 0 995.5 0.9 92
2018-09-12 23:00:00 16.7 28 Nordeste 50 Nordeste 0 995.7 1.2 90
2018-09-12 22:00:00 17.3 31 Nordeste 55 Nordeste 0 995.2 0.8 85
2018-09-12 21:00:00 17.5 39 Nordeste 53 Nordeste 0 994.6 0.2 86
2018-09-12 20:00:00 18.7 34 Nordeste 54 Nordeste 0 994.5 0.1 79
2018-09-12 19:00:00 19.1 37 Nordeste 50 Nordeste 0 994.4 -0.1 76
2018-09-12 18:00:00 20.1 33 Nordeste 55 Nordeste 0 994.4 -0.5 74
2018-09-12 17:00:00 20.2 42 Nordeste 53 Nordeste 0 994.4 -0.4 75
2018-09-12 16:00:00 21 37 Nordeste 48 Nordeste 0 994.5 -0.6 73
2018-09-12 15:00:00 21.3 35 Nordeste 46 Nordeste 0 994.9 -0.1 75
2018-09-12 14:00:00 19.7 35 Nordeste 49 Nordeste 0 994.8 0.5 81
2018-09-12 13:00:00 19.7 31 Nordeste 40 Nordeste 0 995.1 1.3 79
2018-09-12 12:00:00 20.6 27 Nordeste 53 Nordeste 0 995 1.7 78
2018-09-12 11:00:00 19.6 33 Nordeste 57 Nordeste 0 994.3 1.8 81
2018-09-12 10:00:00 18.6 36 Nordeste 61 Nordeste 0 993.8 1.5 85
2018-09-12 09:00:00 17.4 40 Nordeste 64 Nordeste 0 993.3 0.7 91
2018-09-12 08:00:00 16.8 44 Nordeste 65 Nordeste 0 992.5 -0.3 95
2018-09-12 07:00:00 16.4 44 Nordeste 65 Nordeste 0 992.3 -0.7 95
2018-09-12 06:00:00 16.2 32 Nordeste 46 Nordeste 0 992.6 -0.4 95
2018-09-12 05:00:00 16.4 28 Nordeste 41 Nordeste 0 992.8 -0.4 94
2018-09-12 04:00:00 18 18 Nordeste 26 Nordeste 0 993 -0.5 84
2018-09-12 03:00:00 17.1 14 Este 37 Este 0 993 -0.4 93
2018-09-12 02:00:00 16.6 27 Este 48 Nordeste 0 993.2 0.1 95
2018-09-12 01:00:00 16.8 33 Nordeste 55 Nordeste 0 993.5 0.8 95
2018-09-12 00:00:00 16.8 38 Nordeste 55 Nordeste 0 993.4 1.1 94
2018-09-11 23:00:00 16.5 30 Nordeste 42 Este 0 993.1 0.7 92
2018-09-11 22:00:00 18.1 24 Nordeste 36 Nordeste 0 992.7 0.2 81
2018-09-11 21:00:00 23.2 22 Nordeste 27 Nordeste 0 992.3 -0.7 47
2018-09-11 20:00:00 25.3 16 Nordeste 22 Nordeste 0 992.4 -0.8 49
2018-09-11 19:00:00 26.5 9 Norte 12 Nordeste 0 992.5 -1 38
2018-09-11 18:00:00 29.2 5 Norte 8 Norte 0 993 -0.9 29
2018-09-11 17:00:00 30.4 4 Oeste 10 Norte 0 993.2 -1.1 25
2018-09-11 16:00:00 25.8 5 Nordeste 18 Nordeste 0 993.5 -1.4 53
2018-09-11 15:00:00 25.5 6 Norte 11 Sudeste 0 993.9 -1 52
2018-09-11 14:00:00 28.4 4 Sur 11 Sudoeste 0 994.3 -0.5 46
2018-09-11 13:00:00 27 4 Sur 13 Este 0 994.9 0.4 50
2018-09-11 12:00:00 25.6 8 Este 24 Este 0 994.9 0.6 51
2018-09-11 11:00:00 21.7 22 Este 36 Este 0 994.8 0.8 64
2018-09-11 10:00:00 18.3 28 Nordeste 38 Nordeste 0 994.5 0.6 75
2018-09-11 09:00:00 19.3 29 Nordeste 34 Nordeste 0 994.3 0.3 67
2018-09-11 08:00:00 19.7 27 Este 36 Este 0 994 -0.3 65
2018-09-11 07:00:00 20.7 23 Nordeste 31 Nordeste 0 993.9 -0.6 58
2018-09-11 06:00:00 22.3 12 Nordeste 17 Nordeste 0 994 -0.8 45
2018-09-11 05:00:00 23.6 3 Nordeste 13 Nordeste 0 994.3 -0.7 39
2018-09-11 04:00:00 21.7 9 Nordeste 14 Nordeste 0 994.5 -0.9 50
2018-09-11 03:00:00 20.8 13 Nordeste 21 Este 0 994.8 -0.5 55
2018-09-11 02:00:00 21.2 16 Este 31 Este 0 995 -0.2 54
2018-09-11 01:00:00 19.2 23 Nordeste 41 Este 0 995.4 0.5 62
2018-09-11 00:00:00 17.6 32 Nordeste 46 Nordeste 0 995.3 0.7 72
2018-09-10 23:00:00 17.7 34 Nordeste 55 Nordeste 0 995.2 0.6 76
2018-09-10 22:00:00 18.4 36 Nordeste 50 Nordeste 0 994.9 0.1 73
2018-09-10 21:00:00 17.8 31 Nordeste 46 Nordeste 0 994.6 -0.5 82
2018-09-10 20:00:00 19.1 37 Nordeste 45 Nordeste 0 994.6 -1 75
2018-09-10 19:00:00 18.9 28 Nordeste 37 Nordeste 0 994.8 -1.2 77
2018-09-10 18:00:00 19 27 Nordeste 36 Norte 0 995.1 -1.2 77
2018-09-10 17:00:00 18.4 30 Nordeste 44 Nordeste 0 995.6 -1 78
2018-09-10 16:00:00 20.6 21 Nordeste 28 Nordeste 0 996 -0.6 65
2018-09-10 15:00:00 22.1 17 Nordeste 21 Nordeste 0 996.3 -0.3 62
2018-09-10 14:00:00 21.5 18 Nordeste 25 Nordeste 0 996.6 0.4 67
2018-09-10 13:00:00 23.6 10 Nordeste 24 Nordeste 0 996.6 0.6 62
2018-09-10 12:00:00 18.6 16 Nordeste 24 Este 0 996.6 0.8 79
2018-09-10 11:00:00 20.2 19 Este 30 Nordeste 0 996.2 0.8 71
2018-09-10 10:00:00 18.8 23 Nordeste 33 Este 0 996 0.6 73
2018-09-10 09:00:00 17.5 28 Nordeste 38 Nordeste 0 995.8 0.5 82
2018-09-10 08:00:00 16.3 31 Nordeste 38 Este 0 995.4 -0.1 88
2018-09-10 07:00:00 16.7 31 Nordeste 37 Nordeste 0 995.4 0.1 88
2018-09-10 06:00:00 17.5 29 Nordeste 37 Nordeste 0 995.3 -0.2 85
2018-09-10 05:00:00 17.4 28 Nordeste 39 Nordeste 0 995.5 -0.2 87
2018-09-10 04:00:00 16.8 29 Nordeste 41 Nordeste 0 995.3 -0.4 88
2018-09-10 03:00:00 16.5 30 Nordeste 39 Nordeste 0 995.5 -0.4 90
2018-09-10 02:00:00 17.3 27 Nordeste 39 Nordeste 0 995.7 0.3 86
2018-09-10 01:00:00 16.9 33 Nordeste 41 Este 0 995.7 0.6 90
2018-09-10 00:00:00 16.6 26 Nordeste 50 Nordeste 0 995.9 1.6 89
2018-09-09 23:00:00 17 33 Nordeste 52 Nordeste 0 995.4 1.4 87
2018-09-09 22:00:00 17.3 31 Nordeste 49 Nordeste 0 995.1 1 86
2018-09-09 21:00:00 17.3 33 Nordeste 45 Nordeste 0 994.3 0.5 83
2018-09-09 20:00:00 18.1 37 Nordeste 54 Nordeste 0 994 0.3 78
2018-09-09 19:00:00 18.2 33 Nordeste 46 Nordeste 0 994.1 0.2 79
2018-09-09 18:00:00 18.8 33 Nordeste 46 Nordeste 0 993.8 -0.5 78
2018-09-09 17:00:00 20.2 30 Nordeste 46 Norte 0 993.7 -0.3 76
2018-09-09 16:00:00 19.8 28 Nordeste 41 Norte 0 993.9 -0.2 78
2018-09-09 15:00:00 19.7 31 Nordeste 53 Nordeste 0 994.3 0.1 81
2018-09-09 14:00:00 17.5 33 Nordeste 47 Norte 0 994 0 87
2018-09-09 13:00:00 16.2 26 Norte 45 Nordeste 0 994.1 0.6 87
2018-09-09 12:00:00 17.1 14 Nordeste 26 Nordeste 0 994.2 1.4 77
2018-09-09 11:00:00 18.1 15 Nordeste 22 Nordeste 0 994 1.8 74
2018-09-09 10:00:00 17.2 15 Nordeste 26 Nordeste 0 993.5 1.7 76
2018-09-09 09:00:00 15.7 22 Nordeste 25 Nordeste 0 992.8 1.3 82
2018-09-09 08:00:00 16.1 7 Este 19 Este 0 992.2 1.1 81
2018-09-09 07:00:00 13.5 15 Nordeste 18 Nordeste 0 991.8 0.6 92
2018-09-09 06:00:00 16.8 3 Nordeste 9 Sudeste 0 991.5 0.4 75
2018-09-09 05:00:00 16.5 3 Este 13 Sur 0 991.1 -0.2 78
2018-09-09 04:00:00 16.3 9 Sur 15 Sudeste 0 991.2 0.2 78
2018-09-09 03:00:00 16.2 15 Sudeste 18 Sudeste 0 991.1 0.4 80
2018-09-09 02:00:00 16.9 6 Norte 15 Sur 0 991.3 0.7 75
2018-09-09 01:00:00 16.9 6 Oeste 18 Sur 0 991 0.8 77
2018-09-09 00:00:00 17.1 18 Sudeste 23 Sudeste 0 990.7 1.2 75
2018-09-08 23:00:00 16.7 17 Sudeste 22 Sur 0 990.6 1.8 76
2018-09-08 22:00:00 18.2 13 Sudeste 15 Sudeste 0 990.2 1.5 67
2018-09-08 21:00:00 19.1 6 Sur 15 Sur 0 989.5 0.9 63
2018-09-08 20:00:00 21 6 Sur 14 Sur 0 988.8 0.2 58
2018-09-08 19:00:00 22.6 7 Sudeste 11 Sur 0 988.7 -0.1 54
2018-09-08 18:00:00 23.4 8 Sur 17 Sudoeste 0 988.6 -0.2 49
2018-09-08 17:00:00 23.8 13 Sur 27 Sur 0 988.6 0 50
2018-09-08 16:00:00 22.8 19 Sur 27 Sur 0 988.8 0.5 52
2018-09-08 15:00:00 22 18 Sur 24 Sur 0 988.8 0.7 56
2018-09-08 14:00:00 22.3 13 Sur 24 Sur 0 988.6 0.9 55
2018-09-08 13:00:00 25.8 4 Sudoeste 10 Sudoeste 0 988.3 0.8 43
2018-09-08 12:00:00 24.6 7 Sudoeste 18 Sur 0 988.1 1.1 46
2018-09-08 11:00:00 23.1 12 Sur 33 Sur 0 987.7 1.2 50
2018-09-08 10:00:00 19.2 24 Sur 30 Sur 0 987.5 1.3 65
2018-09-08 09:00:00 20.9 9 Sudoeste 11 Sudoeste 0 987 0.7 53
2018-09-08 08:00:00 20.8 10 Sudoeste 10 Sudoeste 0 986.5 0.1 51
2018-09-08 07:00:00 21.2 4 Sur 11 Sudeste 0 986.2 -0.4 51
2018-09-08 06:00:00 21.1 5 Sur 6 Sur 0 986.3 -0.5 51
2018-09-08 05:00:00 20.2 7 Nordeste 10 Norte 0 986.4 -0.8 56
2018-09-08 04:00:00 21.4 6 Este 26 Sudeste 0 986.6 -0.7 52
2018-09-08 03:00:00 21 19 Este 26 Sudeste 0 986.8 -0.4 53
2018-09-08 02:00:00 20.3 10 Este 28 Este 0 987.2 -0.3 57
2018-09-08 01:00:00 20.4 29 Este 48 Este 0 987.3 0 57
2018-09-08 00:00:00 20.7 30 Este 46 Este 0 987.2 0.2 59
2018-09-07 23:00:00 20.1 31 Este 46 Este 0 987.5 0.6 66
2018-09-07 22:00:00 20.7 29 Este 41 Este 0 987.3 0.6 64
2018-09-07 21:00:00 20.5 23 Nordeste 35 Este 0 987 0.2 64
2018-09-07 20:00:00 22.5 20 Este 32 Nordeste 0 986.9 -0.2 59
2018-09-07 19:00:00 23.8 22 Nordeste 32 Nordeste 0 986.7 -1 56
2018-09-07 18:00:00 24.3 21 Nordeste 26 Nordeste 0 986.8 -1.3 55
2018-09-07 17:00:00 24.4 19 Nordeste 26 Nordeste 0 987.1 -1.3 54
2018-09-07 16:00:00 24.7 14 Nordeste 22 Nordeste 0 987.7 -0.9 53
2018-09-07 15:00:00 24.4 10 Nordeste 17 Nordeste 0 988.1 -0.5 53
2018-09-07 14:00:00 25.9 5 Norte 19 Este 0 988.4 0.2 46
2018-09-07 13:00:00 24.6 6 Este 27 Este 0 988.6 0.8 50
2018-09-07 12:00:00 22.3 14 Este 33 Este 0 988.6 0.9 59
2018-09-07 11:00:00 20 24 Este 41 Este 0 988.2 0.8 65
2018-09-07 10:00:00 18 30 Este 43 Este 0 987.8 0.5 71
2018-09-07 09:00:00 16.9 31 Este 50 Este 0 987.7 0.4 74
2018-09-07 08:00:00 16.2 40 Este 58 Este 0 987.4 -0.1 76
2018-09-07 07:00:00 16 42 Este 58 Este 0 987.3 -0.2 78
2018-09-07 06:00:00 16 43 Este 68 Este 0 987.3 -0.7 78
2018-09-07 05:00:00 15.7 46 Este 66 Este 0 987.5 -1 80
2018-09-07 04:00:00 15.9 46 Este 67 Este 0 987.5 -2 79
2018-09-07 03:00:00 16.2 41 Este 67 Este 0 988 -1.8 78
2018-09-07 02:00:00 15.4 27 Nordeste 55 Nordeste 0 988.5 -1.5 83
2018-09-07 01:00:00 15.1 16 Norte 58 Nordeste 0 989.5 -0.4 84
2018-09-07 00:00:00 15.2 25 Nordeste 49 Nordeste 0 989.8 0.2 84
2018-09-06 23:00:00 15.3 21 Nordeste 49 Nordeste 0 990 0.4 83
2018-09-06 22:00:00 15.7 24 Nordeste 54 Nordeste 0 989.9 0.4 82
2018-09-06 21:00:00 16.4 36 Nordeste 63 Este 0 989.6 0 79
2018-09-06 20:00:00 17.9 37 Nordeste 61 Nordeste 0 989.6 -0.3 73
2018-09-06 19:00:00 18.9 36 Nordeste 67 Nordeste 0 989.5 -1.2 70
2018-09-06 18:00:00 20.4 27 Nordeste 58 Nordeste 0 989.6 -1.5 65
2018-09-06 17:00:00 21 30 Nordeste 58 Nordeste 0 989.9 -1.8 61
2018-09-06 16:00:00 21.8 31 Nordeste 63 Nordeste 0 990.7 -0.1 57
2018-09-06 15:00:00 21.1 32 Nordeste 55 Este 0 991.1 0.3 60
2018-09-06 14:00:00 20.1 24 Nordeste 69 Nordeste 0 991.7 0.3 66
2018-09-06 13:00:00 19.8 35 Nordeste 71 Nordeste 0 990.8 -0.2 65
2018-09-06 12:00:00 17.9 39 Nordeste 72 Este 0 990.8 0.1 74
2018-09-06 11:00:00 17.3 36 Nordeste 67 Nordeste 0 991.4 1.1 83
2018-09-06 10:00:00 16.8 23 Nordeste 45 Nordeste 0 991 0.8 87
2018-09-06 09:00:00 16.3 28 Nordeste 54 Este 0 990.7 0.4 88
2018-09-06 08:00:00 15.7 30 Nordeste 48 Nordeste 0 990.3 -0.2 89
2018-09-06 07:00:00 15.6 28 Nordeste 46 Nordeste 0 990.2 -0.3 90
2018-09-06 06:00:00 15.6 29 Nordeste 47 Nordeste 0 990.3 -0.1 89
2018-09-06 05:00:00 15.8 31 Nordeste 50 Nordeste 0 990.5 -0.5 88
2018-09-06 04:00:00 15.9 31 Nordeste 51 Nordeste 0 990.5 -0.5 89
2018-09-06 03:00:00 15.7 35 Nordeste 58 Nordeste 0 990.4 -0.6 89
2018-09-06 02:00:00 15.9 27 Nordeste 50 Nordeste 0 991 -0.2 89
2018-09-06 01:00:00 15.7 34 Nordeste 53 Nordeste 0 991 0.8 90
2018-09-06 00:00:00 15.7 31 Nordeste 46 Nordeste 0 991 1.2 88
2018-09-05 23:00:00 15.7 29 Nordeste 64 Nordeste 0 991.2 1.5 87
2018-09-05 22:00:00 16 43 Nordeste 66 Nordeste 0 990.2 0.8 86
2018-09-05 21:00:00 16.4 36 Nordeste 53 Nordeste 0 989.8 0.4 85
2018-09-05 20:00:00 17.9 32 Nordeste 49 Nordeste 0 989.7 0.3 78
2018-09-05 19:00:00 18 33 Nordeste 52 Nordeste 0 989.4 0.6 77
2018-09-05 18:00:00 19.4 31 Nordeste 54 Nordeste 0 989.4 0.2 72
2018-09-05 17:00:00 19.6 34 Nordeste 62 Norte 0 989.4 0 71
2018-09-05 16:00:00 19.3 41 Norte 60 Nordeste 0 988.8 -0.5 65
2018-09-05 15:00:00 20.3 28 Nordeste 57 Norte 0 989.2 0.2 64
2018-09-05 14:00:00 19 31 Nordeste 59 Norte 0 989.4 0.9 70
2018-09-05 13:00:00 17.8 33 Nordeste 51 Nordeste 0 989.3 0.8 73
2018-09-05 12:00:00 16.8 34 Nordeste 51 Norte 0 989 0.8 84
2018-09-05 11:00:00 16.4 33 Norte 55 Nordeste 0 988.5 0.9 83
2018-09-05 10:00:00 16 36 Nordeste 55 Nordeste 0 988.5 1.1 87
2018-09-05 09:00:00 16 29 Nordeste 64 Nordeste 0 988.2 1.7 88
2018-09-05 08:00:00 16 33 Nordeste 50 Nordeste 0 987.6 0.9 90
2018-09-05 07:00:00 16.2 31 Nordeste 73 Nordeste 0 987.4 0.6 92
2018-09-05 06:00:00 16.4 43 Nordeste 64 Nordeste 0 986.5 -1.1 91
2018-09-05 05:00:00 16.9 39 Nordeste 69 Nordeste 0 986.7 -1.4 89
2018-09-05 04:00:00 17.2 34 Nordeste 57 Nordeste 0 986.8 -1.1 89
2018-09-05 03:00:00 17.4 34 Nordeste 60 Nordeste 0 987.6 -0.5 89
2018-09-05 02:00:00 17.5 30 Nordeste 53 Nordeste 0 988.1 0.3 89
2018-09-05 01:00:00 16.5 31 Nordeste 51 Norte 0 987.9 0.5 93
2018-09-05 00:00:00 16.6 32 Nordeste 55 Nordeste 0 988.1 1.8 92
2018-09-04 23:00:00 16.9 33 Nordeste 53 Nordeste 0 987.8 0.8 91
2018-09-04 22:00:00 16.8 21 Nordeste 48 Nordeste 0 987.4 1.5 92
2018-09-04 21:00:00 15.7 32 Nordeste 49 Nordeste 0 986.3 0 93
2018-09-04 20:00:00 17.4 25 Nordeste 51 Nordeste 0 987 0.7 88
2018-09-04 19:00:00 19.7 24 Nordeste 45 Nordeste 0 985.9 -0.8 75
2018-09-04 18:00:00 20.4 14 Norte 42 Nordeste 0 986.3 -0.1 61
2018-09-04 17:00:00 20.6 22 Nordeste 36 Norte 0 986.3 -0.1 59
2018-09-04 16:00:00 20.4 26 Este 52 Este 0 986.7 0.1 65
2018-09-04 15:00:00 20.5 30 Este 49 Este 0 986.4 -0.1 67
2018-09-04 14:00:00 21.2 29 Este 49 Este 0 986.4 0.1 63
2018-09-04 13:00:00 21.7 18 Nordeste 50 Este 0 986.6 0.2 62
2018-09-04 12:00:00 19.4 29 Nordeste 54 Nordeste 0 986.5 0.4 71
2018-09-04 11:00:00 18.8 30 Nordeste 58 Este 0 986.3 0.9 73
2018-09-04 10:00:00 17.9 31 Nordeste 54 Nordeste 0 986.4 0.9 77
2018-09-04 09:00:00 16.9 23 Nordeste 60 Nordeste 0 986.1 0.6 81
2018-09-04 08:00:00 16.2 29 Nordeste 59 Nordeste 0 985.4 -0.2 84
2018-09-04 07:00:00 16.2 21 Nordeste 56 Nordeste 0 985.5 -0.5 84
2018-09-04 06:00:00 16.6 24 Nordeste 51 Nordeste 0 985.5 -1 80
2018-09-04 05:00:00 16.8 21 Nordeste 45 Nordeste 0 985.6 -0.9 78
2018-09-04 04:00:00 16.9 16 Nordeste 46 Este 0 986 -0.7 77
2018-09-04 03:00:00 17.2 19 Nordeste 48 Nordeste 0 986.5 0.2 75
2018-09-04 02:00:00 17.2 26 Nordeste 54 Este 0 986.5 0 75
2018-09-04 01:00:00 17.5 24 Nordeste 49 Nordeste 0 986.7 0.5 76
2018-09-04 00:00:00 17.7 30 Nordeste 54 Nordeste 0 986.3 0.5 76
2018-09-03 23:00:00 18 22 Nordeste 51 Este 0 986.5 1 75
2018-09-03 22:00:00 18.7 23 Nordeste 41 Este 0 986.2 0.9 72
2018-09-03 21:00:00 20.1 19 Este 41 Este 0 985.8 0 68
2018-09-03 20:00:00 20.7 22 Este 40 Nordeste 0 985.5 -0.5 69
2018-09-03 19:00:00 19 17 Nordeste 29 Nordeste 0 985.3 -0.7 79
2018-09-03 18:00:00 19.7 6 Norte 12 Sudeste 0 985.8 0.1 76
2018-09-03 17:00:00 19.7 10 Sudeste 14 Sudeste 0 986 0.5 75
2018-09-03 16:00:00 18.3 9 Sudeste 17 Sur 0 986 0.2 83
2018-09-03 15:00:00 18 14 Sur 22 Sur 0 985.7 0.2 80
2018-09-03 14:00:00 22.7 12 Sur 19 Sur 0 985.5 0.4 62
2018-09-03 13:00:00 23.1 8 Nordeste 14 Nordeste 0 985.8 1.4 60
2018-09-03 12:00:00 23.4 8 Este 16 Nordeste 0 985.5 1.1 57
2018-09-03 11:00:00 19.9 11 Norte 27 Este 0 985.1 1.7 66
2018-09-03 10:00:00 21 18 Nordeste 31 Este 0 984.4 1.4 60
2018-09-03 09:00:00 20.6 16 Sur 33 Sudeste 0 984.4 1.7 63
2018-09-03 08:00:00 21.8 16 Este 32 Este 0 983.4 0.4 58
2018-09-03 07:00:00 22.7 26 Este 41 Este 0 983 -0.5 54
2018-09-03 06:00:00 24 25 Este 35 Este 0 982.7 -1.9 46
2018-09-03 05:00:00 25.1 21 Este 36 Este 0 983 -1.8 42
2018-09-03 04:00:00 22.7 24 Nordeste 32 Nordeste 0 983.5 -1.6 55
2018-09-03 03:00:00 24.5 5 Sudeste 31 Este 0 984.6 -1.1 51
2018-09-03 02:00:00 26.5 17 Este 31 Este 0 984.8 -1.3 39
2018-09-03 01:00:00 23 23 Nordeste 32 Nordeste 0 985.1 -0.5 58
2018-09-03 00:00:00 23.8 16 Nordeste 24 Nordeste 0 985.7 0.3 47
2018-09-02 23:00:00 23.1 18 Nordeste 24 Nordeste 0 986.1 0.6 52
2018-09-02 22:00:00 23.9 9 Nordeste 12 Nordeste 0 985.6 0 49
2018-09-02 21:00:00 23.3 6 Sudeste 11 Sudeste 0 985.4 -0.4 49
2018-09-02 20:00:00 24.4 7 Sur 14 Sudoeste 0 985.5 -0.5 48
2018-09-02 19:00:00 25.2 8 Sudoeste 12 Oeste 0 985.6 -0.7 52
2018-09-02 18:00:00 26.8 4 Sur 20 Sur 0 985.8 -0.7 44
2018-09-02 17:00:00 25.2 16 Sudeste 24 Sudeste 0 986 -0.8 46
2018-09-02 16:00:00 25.1 20 Sur 33 Sur 0 986.3 -0.5 49
2018-09-02 15:00:00 25.3 24 Sur 36 Sur 0 986.5 -0.3 47
2018-09-02 14:00:00 25.4 23 Sur 40 Sur 0 986.8 0.4 49
2018-09-02 13:00:00 25.1 30 Sur 45 Sur 0 986.8 0.8 49
2018-09-02 12:00:00 23.1 28 Sur 40 Sur 0 986.8 1 57
2018-09-02 11:00:00 31.6 9 Nordeste 24 Nordeste 0 986.4 0.7 26
2018-09-02 10:00:00 29.5 21 Nordeste 22 Nordeste 0 986 0.3 30
2018-09-02 09:00:00 27.7 17 Nordeste 19 Nordeste 0 985.8 0 38
2018-09-02 08:00:00 28.3 6 Nordeste 12 Este 0 985.7 -0.3 31
2018-09-02 07:00:00 29.1 9 Sudeste 12 Sudeste 0 985.7 -0.7 29
2018-09-02 06:00:00 28.8 7 Sudeste 13 Sudeste 0 985.8 -0.9 30
2018-09-02 05:00:00 29.1 5 Sudeste 13 Este 0 986 -0.8 30
2018-09-02 04:00:00 29.2 8 Sudeste 13 Sudeste 0 986.4 -0.7 30
2018-09-02 03:00:00 28.8 10 Sudeste 24 Sudeste 0 986.7 -0.4 33
2018-09-02 02:00:00 28.1 19 Este 32 Este 0 986.8 -0.7 38
2018-09-02 01:00:00 28.3 15 Este 24 Este 0 987.1 -0.3 40
2018-09-02 00:00:00 28.5 19 Este 24 Este 0 987.1 -0.3 44
2018-09-01 23:00:00 28.6 16 Este 24 Este 0 987.5 0 47
2018-09-01 22:00:00 28.1 11 Este 18 Este 0 987.4 -0.3 53
2018-09-01 21:00:00 27.9 12 Nordeste 15 Nordeste 0 987.4 -0.6 54
2018-09-01 20:00:00 29.5 9 Norte 16 Norte 0 987.5 -0.8 48
2018-09-01 19:00:00 29.2 11 Norte 17 Norte 0 987.7 -1 41
2018-09-01 18:00:00 29.7 12 Norte 19 Norte 0 988 -1 33
2018-09-01 17:00:00 29.5 9 Norte 14 Noroeste 0 988.3 -0.8 33
2018-09-01 16:00:00 31.5 7 Noroeste 13 Oeste 0 988.7 -0.6 29
2018-09-01 15:00:00 30.2 8 Oeste 16 Sudoeste 0 989 -0.4 35
2018-09-01 14:00:00 30.5 6 Sudoeste 14 Sudoeste 0 989.1 -0.2 38
2018-09-01 13:00:00 29.1 5 Sudoeste 14 Este 0 989.3 0.3 47
2018-09-01 12:00:00 27.1 4 Sudeste 12 Este 0 989.4 0.7 52
2018-09-01 11:00:00 24.8 7 Sudeste 17 Este 0 989.3 0.8 56
2018-09-01 10:00:00 23.1 12 Este 24 Este 0 989 0.5 58
2018-09-01 09:00:00 21.3 17 Este 31 Este 0 988.7 0.1 63
2018-09-01 08:00:00 19.7 23 Este 48 Este 0 988.5 -0.5 70
2018-09-01 07:00:00 18.6 36 Este 50 Este 0 988.5 -1.3 75
2018-09-01 06:00:00 19.1 41 Este 59 Este 0 988.6 -1.6 73
2018-09-01 05:00:00 19 35 Nordeste 66 Este 0 989 -1.4 74
2018-09-01 04:00:00 17.3 24 Nordeste 37 Nordeste 0 989.8 -1.1 85
2018-09-01 03:00:00 17.1 27 Norte 45 Nordeste 0 990.2 -0.7 87
2018-09-01 02:00:00 17.3 26 Nordeste 47 Nordeste 0 990.4 -0.9 85
2018-09-01 01:00:00 17.2 23 Norte 46 Nordeste 0 990.9 -0.3 87
2018-09-01 00:00:00 17.9 34 Nordeste 50 Nordeste 0 990.9 0.1 85
2018-08-31 23:00:00 17.5 26 Norte 41 Nordeste 0 991.3 0.6 88
2018-08-31 22:00:00 18 23 Nordeste 45 Nordeste 0 991.2 0.1 87
2018-08-31 21:00:00 18.9 29 Nordeste 51 Nordeste 0 990.8 -0.4 82
2018-08-31 20:00:00 20.9 35 Nordeste 67 Nordeste 0 990.7 -0.5 73
2018-08-31 19:00:00 21.6 27 Nordeste 45 Nordeste 0 991.1 -0.4 72
2018-08-31 18:00:00 22 32 Nordeste 53 Nordeste 0 991.2 -0.4 71
2018-08-31 17:00:00 22.5 34 Nordeste 50 Nordeste 0 991.2 -0.7 70
2018-08-31 16:00:00 22.2 33 Nordeste 46 Nordeste 0 991.5 -0.8 70
2018-08-31 15:00:00 22.6 24 Nordeste 39 Nordeste 0 991.6 -0.8 70
2018-08-31 14:00:00 22.9 28 Nordeste 45 Nordeste 0 991.9 -0.5 68
2018-08-31 13:00:00 23.3 23 Nordeste 46 Este 0 992.3 -0.1 60
2018-08-31 12:00:00 21.7 27 Nordeste 48 Nordeste 0 992.4 -0.1 67
2018-08-31 11:00:00 19.6 28 Nordeste 46 Nordeste 0 992.4 0.3 78
2018-08-31 10:00:00 17.9 28 Nordeste 51 Nordeste 0 992.4 1.3 86
2018-08-31 09:00:00 17 22 Nordeste 45 Nordeste 0 992.5 1.3 89
2018-08-31 08:00:00 16.5 28 Nordeste 66 Nordeste 0 992.1 0.8 90
2018-08-31 07:00:00 16.2 50 Nordeste 73 Nordeste 0 991.1 -0.6 91
2018-08-31 06:00:00 16.1 51 Nordeste 71 Nordeste 0 991.2 -1 92
2018-08-31 05:00:00 16.1 47 Nordeste 67 Nordeste 0 991.3 -1.2 90
2018-08-31 04:00:00 16.1 41 Nordeste 64 Nordeste 0 991.7 -1.1 88
2018-08-31 03:00:00 16.1 41 Nordeste 58 Nordeste 0 992.2 -1.2 87
2018-08-31 02:00:00 16.2 43 Nordeste 58 Nordeste 0 992.5 -1.3 85
2018-08-31 01:00:00 16.4 39 Nordeste 57 Nordeste 0 992.8 -0.7 84
2018-08-31 00:00:00 16.3 36 Nordeste 52 Nordeste 0 993.4 -0.1 84
2018-08-30 23:00:00 16.6 30 Nordeste 50 Nordeste 0 993.8 0.4 83
2018-08-30 22:00:00 16.8 28 Nordeste 51 Nordeste 0 993.5 0.2 83
2018-08-30 21:00:00 17.3 25 Nordeste 47 Nordeste 0 993.5 0.4 80
2018-08-30 20:00:00 18.8 25 Nordeste 46 Nordeste 0 993.4 0.1 70
2018-08-30 19:00:00 19.6 25 Nordeste 51 Nordeste 0 993.3 -0.4 68
2018-08-30 18:00:00 19.2 33 Nordeste 55 Nordeste 0 993.1 -0.7 75
2018-08-30 17:00:00 19.8 31 Norte 49 Norte 0 993.3 -0.8 67
2018-08-30 16:00:00 20.4 25 Nordeste 48 Nordeste 0 993.7 -0.6 67
2018-08-30 15:00:00 18.9 27 Nordeste 49 Nordeste 0 993.8 -0.8 75
2018-08-30 14:00:00 19.2 30 Nordeste 50 Nordeste 0 994.1 -0.4 75
2018-08-30 13:00:00 18 28 Nordeste 45 Nordeste 0 994.3 -0.3 82
2018-08-30 12:00:00 17.3 31 Nordeste 50 Nordeste 0 994.6 -0.1 86
2018-08-30 11:00:00 16.2 28 Nordeste 49 Nordeste 0 994.5 0.2 92
2018-08-30 10:00:00 15.4 28 Nordeste 41 Nordeste 0 994.6 0.3 94
2018-08-30 09:00:00 15.3 31 Nordeste 42 Nordeste 0 994.7 0 94
2018-08-30 08:00:00 15.2 29 Nordeste 44 Nordeste 0 994.3 -0.6 94
2018-08-30 07:00:00 15 26 Nordeste 43 Nordeste 0 994.3 -1 94
2018-08-30 06:00:00 14.9 26 Nordeste 36 Nordeste 0 994.7 -1.1 94
2018-08-30 05:00:00 14.8 21 Nordeste 36 Nordeste 0 994.9 -1.3 94
2018-08-30 04:00:00 14.7 23 Nordeste 35 Nordeste 0 995.3 -0.9 93
2018-08-30 03:00:00 14.5 23 Nordeste 37 Nordeste 0 995.8 -0.6 93
2018-08-30 02:00:00 14.4 27 Nordeste 42 Nordeste 0 996.2 -0.5 92
2018-08-30 01:00:00 14.5 28 Nordeste 45 Nordeste 0 996.2 -0.2 89
2018-08-30 00:00:00 14.8 29 Nordeste 46 Nordeste 0 996.4 0.6 89
2018-08-29 23:00:00 14.8 29 Nordeste 44 Nordeste 0 996.7 1.1 88
2018-08-29 22:00:00 14.8 27 Nordeste 42 Nordeste 0 996.4 0.9 85
2018-08-29 21:00:00 15.5 29 Nordeste 51 Nordeste 0 995.8 0.5 80
2018-08-29 20:00:00 16.5 30 Nordeste 50 Norte 0 995.6 0.2 75
2018-08-29 19:00:00 17.1 30 Norte 56 Norte 0 995.5 -0.3 72
2018-08-29 18:00:00 17.5 33 Norte 53 Norte 0 995.3 -0.3 71
2018-08-29 17:00:00 17.7 27 Norte 47 Norte 0 995.4 -0.2 76
2018-08-29 16:00:00 18 31 Norte 45 Norte 0 995.8 0.2 71
2018-08-29 15:00:00 18.5 28 Norte 42 Norte 0 995.6 0 68
2018-08-29 14:00:00 17.6 22 Norte 30 Norte 0 995.6 0.3 78
2018-08-29 13:00:00 18.4 9 Norte 17 Noroeste 0 995.6 0.7 79
2018-08-29 12:00:00 17.5 9 Noroeste 14 Noroeste 0 995.6 1 79
2018-08-29 11:00:00 18 6 Noroeste 9 Noroeste 0 995.3 1.3 81
2018-08-29 10:00:00 17 3 Oeste 9 Noroeste 0 994.9 1.2 84
2018-08-29 09:00:00 16 6 Noroeste 13 Noroeste 0 994.6 1 85
2018-08-29 08:00:00 15.4 8 Noroeste 18 Norte 0 994 0.6 84
2018-08-29 07:00:00 15.4 9 Norte 17 Norte 0 993.7 0.3 81
2018-08-29 06:00:00 15.5 8 Norte 13 Nordeste 0 993.6 0.2 81
2018-08-29 05:00:00 15 12 Nordeste 17 Norte 0 993.4 0.2 82
2018-08-29 04:00:00 15.2 13 Norte 21 Norte 0 993.4 0.4 82
2018-08-29 03:00:00 14.8 13 Norte 22 Norte 0 993.4 0.6 83
2018-08-29 02:00:00 15.1 15 Norte 30 Norte 0 993.2 0.6 84
2018-08-29 01:00:00 15.3 18 Norte 30 Norte 0 993 1.1 84
2018-08-29 00:00:00 15.4 21 Norte 37 Norte 0 992.8 1.6 83
2018-08-28 23:00:00 15.4 24 Norte 41 Norte 0 992.6 2 86
2018-08-28 22:00:00 15.7 28 Norte 37 Norte 0 991.9 1.8 89
2018-08-28 21:00:00 15.9 20 Norte 39 Norte 0 991.2 1.6 92
2018-08-28 20:00:00 15.6 23 Norte 44 Norte 0 990.6 1.4 94
2018-08-28 19:00:00 15.5 30 Norte 51 Norte 0 990.1 1.5 95
2018-08-28 18:00:00 15.5 34 Norte 46 Noroeste 0 989.6 1.2 95
2018-08-28 17:00:00 15.6 16 Noroeste 46 Norte 0 989.2 1.1 95
2018-08-28 16:00:00 16.2 22 Noroeste 46 Norte 0 988.6 1.1 94
2018-08-28 15:00:00 16.9 27 Norte 36 Norte 0 988.4 2 93
2018-08-28 14:00:00 18 7 Noroeste 20 Norte 0 988.1 2.5 88
2018-08-28 13:00:00 18.9 13 Sudoeste 21 Sudoeste 0 987.5 2.3 79
2018-08-28 12:00:00 19.3 8 Sudoeste 30 Sur 0 986.4 1.5 79
2018-08-28 11:00:00 17.3 22 Sur 46 Sur 0 985.6 0.9 80
2018-08-28 10:00:00 21 23 Sur 35 Sur 0 985.2 0.9 69
2018-08-28 09:00:00 21.8 22 Sudeste 38 Sur 0 984.9 0.8 66
2018-08-28 08:00:00 21 19 Sur 26 Sudeste 0 984.7 0.7 68
2018-08-28 07:00:00 21.8 15 Sur 27 Sur 0 984.3 -0.3 65
2018-08-28 06:00:00 22.4 13 Sudoeste 21 Sur 0 984.1 -1.1 61
2018-08-28 05:00:00 22.7 7 Sur 27 Sur 0 984 -1.3 58
2018-08-28 04:00:00 23.2 12 Sur 27 Sudeste 0 984.6 -0.5 64
2018-08-28 03:00:00 22.8 11 Sudeste 22 Este 0 985.2 -0.2 68
2018-08-28 02:00:00 22.1 15 Este 37 Este 0 985.3 0 71
2018-08-28 01:00:00 20.7 33 Este 43 Este 0 985.1 0.6 79
2018-08-28 00:00:00 19.4 32 Nordeste 41 Nordeste 0 985.4 0.2 84
2018-08-27 23:00:00 18.2 27 Nordeste 46 Este 0 985.3 -0.1 88
2018-08-27 22:00:00 19.8 35 Este 43 Nordeste 0 984.5 -0.2 84
2018-08-27 21:00:00 20.6 25 Este 46 Este 0 985.2 -0.6 82
2018-08-27 20:00:00 19.1 32 Nordeste 46 Nordeste 0 985.4 -1.6 88
2018-08-27 19:00:00 20.1 36 Nordeste 53 Nordeste 0 984.7 -1.9 83
2018-08-27 18:00:00 20.1 34 Nordeste 48 Nordeste 0 985.8 -1.7 83
2018-08-27 17:00:00 21.3 32 Este 50 Nordeste 0 987 -0.9 77
2018-08-27 16:00:00 22.8 35 Nordeste 53 Nordeste 0 986.6 -1.5 74
2018-08-27 15:00:00 21.6 31 Nordeste 51 Nordeste 0 987.5 -0.7 77
2018-08-27 14:00:00 21.8 29 Nordeste 44 Nordeste 0 987.9 -0.1 76
2018-08-27 13:00:00 21.2 29 Nordeste 52 Nordeste 0 988.1 0 79
2018-08-27 12:00:00 21.1 30 Nordeste 55 Nordeste 0 988.2 0 79
2018-08-27 11:00:00 19.7 32 Nordeste 48 Nordeste 0 988 0.2 83
2018-08-27 10:00:00 19 28 Nordeste 39 Nordeste 0 988.1 0.3 87
2018-08-27 09:00:00 18.1 26 Nordeste 40 Nordeste 0 988.2 0.2 90
2018-08-27 08:00:00 17.8 26 Nordeste 40 Nordeste 0 987.8 -0.2 92
2018-08-27 07:00:00 17.9 21 Nordeste 37 Nordeste 0 987.8 -0.7 92
2018-08-27 06:00:00 18.4 19 Nordeste 40 Nordeste 0 988 -0.9 90
2018-08-27 05:00:00 18.8 31 Nordeste 42 Nordeste 0 988 -1.1 88
2018-08-27 04:00:00 18.8 25 Nordeste 37 Nordeste 0 988.5 -0.6 90
2018-08-27 03:00:00 18.4 21 Nordeste 31 Nordeste 0 988.9 -0.2 92
2018-08-27 02:00:00 18.8 20 Nordeste 41 Nordeste 0 989.1 -0.2 89
2018-08-27 01:00:00 18.1 31 Nordeste 42 Nordeste 0 989.1 0 95
2018-08-27 00:00:00 17.7 30 Nordeste 40 Nordeste 0 989.1 0.3 95
2018-08-26 23:00:00 17.3 27 Nordeste 36 Nordeste 0 989.3 0.6 95
2018-08-26 22:00:00 17.3 27 Nordeste 41 Norte 0 989.1 0.1 95
2018-08-26 21:00:00 17.1 31 Norte 48 Norte 0 988.8 -0.3 92
2018-08-26 20:00:00 18.4 33 Norte 48 Norte 0 988.7 -0.7 85
2018-08-26 19:00:00 19.1 30 Norte 41 Norte 0 989 -1 81
2018-08-26 18:00:00 19.5 25 Norte 39 Norte 0 989.1 -0.9 78
2018-08-26 17:00:00 19.7 28 Norte 40 Norte 0 989.4 -0.6 77
2018-08-26 16:00:00 19.5 24 Norte 40 Norte 0 990 0 73
2018-08-26 15:00:00 18.7 28 Norte 42 Norte 0 990 0 67
2018-08-26 14:00:00 17.7 26 Norte 37 Norte 0 990 -0.2 76
2018-08-26 13:00:00 17.4 26 Norte 39 Norte 0 990 -0.2 79
2018-08-26 12:00:00 16.7 22 Norte 31 Norte 0 990 0.2 82
2018-08-26 11:00:00 17.2 16 Nordeste 28 Nordeste 0 990.2 0.8 83
2018-08-26 10:00:00 16 22 Nordeste 32 Nordeste 0 990.2 0.8 87
2018-08-26 09:00:00 14.7 27 Nordeste 34 Nordeste 0 989.8 0.3 93
2018-08-26 08:00:00 14.4 27 Nordeste 35 Nordeste 0 989.4 -0.6 91
2018-08-26 07:00:00 14.2 26 Nordeste 30 Nordeste 0 989.4 -1 90
2018-08-26 06:00:00 14.2 23 Nordeste 28 Nordeste 0 989.5 -1.4 90
2018-08-26 05:00:00 14.3 23 Nordeste 30 Nordeste 0 990 -1.2 90
2018-08-26 04:00:00 14.5 21 Nordeste 30 Nordeste 0 990.4 -0.9 89
2018-08-26 03:00:00 14.7 16 Nordeste 37 Nordeste 0 990.9 -0.7 88
2018-08-26 02:00:00 15 21 Nordeste 42 Nordeste 0 991.2 -0.9 87
2018-08-26 01:00:00 15.1 28 Nordeste 43 Nordeste 0 991.3 -0.5 87
2018-08-26 00:00:00 15.3 30 Nordeste 43 Nordeste 0 991.6 0.1 87
2018-08-25 23:00:00 15.4 27 Nordeste 36 Nordeste 0 992.1 0.5 89
2018-08-25 22:00:00 15.7 27 Nordeste 39 Nordeste 0 991.8 0.2 87
2018-08-25 21:00:00 16.3 29 Nordeste 41 Nordeste 0 991.5 -0.4 83
2018-08-25 20:00:00 17.1 27 Nordeste 43 Norte 0 991.6 -0.5 78
2018-08-25 19:00:00 17.1 30 Norte 46 Norte 0 991.6 -0.9 78
2018-08-25 18:00:00 17.2 33 Norte 53 Norte 0 991.9 -1 78
2018-08-25 17:00:00 17.1 33 Norte 54 Norte 0 992.1 -1.3 74
2018-08-25 16:00:00 17 37 Norte 55 Norte 0 992.5 -1.2 75
2018-08-25 15:00:00 17 36 Norte 52 Norte 0 992.9 -1.2 75
2018-08-25 14:00:00 17.3 33 Norte 49 Nordeste 0 993.4 -0.6 74
2018-08-25 13:00:00 16.9 32 Nordeste 49 Nordeste 0 993.7 -0.4 71
2018-08-25 12:00:00 17.3 28 Nordeste 40 Nordeste 0 994.1 0.4 68
2018-08-25 11:00:00 16.6 23 Nordeste 36 Nordeste 0 994 0.8 72
2018-08-25 10:00:00 15.9 22 Nordeste 45 Nordeste 0 994.1 0.7 74
2018-08-25 09:00:00 14.7 28 Nordeste 42 Nordeste 0 993.7 0.3 79
2018-08-25 08:00:00 14 29 Nordeste 40 Nordeste 0 993.2 -0.4 83
2018-08-25 07:00:00 14.2 32 Nordeste 45 Nordeste 0 993.4 -0.5 82
2018-08-25 06:00:00 14 29 Nordeste 44 Nordeste 0 993.4 -0.9 82
2018-08-25 05:00:00 14.1 32 Nordeste 42 Nordeste 0 993.6 -1.1 81
2018-08-25 04:00:00 14.1 33 Nordeste 45 Nordeste 0 993.9 -0.8 83
2018-08-25 03:00:00 14 27 Nordeste 43 Nordeste 0 994.3 -0.3 84
2018-08-25 02:00:00 14.1 31 Nordeste 44 Nordeste 0 994.7 0.2 83
2018-08-25 01:00:00 14.6 32 Nordeste 47 Nordeste 0 994.7 0.9 82
2018-08-25 00:00:00 14.6 31 Nordeste 53 Nordeste 0 994.6 1.1 83
2018-08-24 23:00:00 15 33 Nordeste 53 Nordeste 0 994.5 1.1 84
2018-08-24 22:00:00 15.4 43 Nordeste 57 Nordeste 0 993.8 0.4 82
2018-08-24 21:00:00 16.3 36 Nordeste 59 Nordeste 0 993.5 0 78
2018-08-24 20:00:00 17.6 32 Nordeste 59 Nordeste 0 993.4 -0.4 74
2018-08-24 19:00:00 18.8 30 Nordeste 50 Nordeste 0 993.4 -0.7 69
2018-08-24 18:00:00 19.6 30 Nordeste 55 Nordeste 0 993.5 -1.3 66
2018-08-24 17:00:00 19.6 33 Nordeste 58 Nordeste 0 993.8 -1.4 65
2018-08-24 16:00:00 18.6 38 Nordeste 57 Nordeste 0 994.1 -1.3 67
2018-08-24 15:00:00 19.4 35 Nordeste 50 Nordeste 0 994.8 -0.6 66
2018-08-24 14:00:00 20.6 30 Nordeste 51 Norte 0 995.2 -0.1 62
2018-08-24 13:00:00 19.5 33 Nordeste 53 Nordeste 0 995.4 0.3 68
2018-08-24 12:00:00 18.5 31 Nordeste 53 Nordeste 0 995.4 0.7 74
2018-08-24 11:00:00 17.5 28 Nordeste 50 Este 0 995.3 0.8 79
2018-08-24 10:00:00 16.3 29 Nordeste 46 Nordeste 0 995.1 1 85
2018-08-24 09:00:00 15.6 32 Nordeste 49 Nordeste 0 994.7 0.8 90
2018-08-24 08:00:00 15.4 27 Nordeste 46 Nordeste 0 994.5 0.7 93
2018-08-24 07:00:00 15.6 28 Nordeste 46 Nordeste 0 994.1 0 95
2018-08-24 06:00:00 15.8 29 Nordeste 48 Nordeste 0 993.9 -0.4 96
2018-08-24 05:00:00 16 28 Nordeste 44 Nordeste 0 993.8 -0.8 95
2018-08-24 04:00:00 16.4 25 Nordeste 37 Nordeste 0 994.1 -0.4 95
2018-08-24 03:00:00 16.8 22 Nordeste 39 Nordeste 0 994.3 -0.2 93
2018-08-24 02:00:00 17.3 24 Nordeste 44 Este 0 994.6 0.6 91
2018-08-24 01:00:00 17.2 27 Nordeste 45 Nordeste 0 994.5 1.1 87
2018-08-24 00:00:00 17.2 28 Nordeste 58 Nordeste 0 994.5 1.8 86